EKKA

Karup Airport

Karup, Denmark
TAF AMD EKKA 221822Z 2218/2318 14010KT 9000 FEW012 BKN180 TEMPO 2218/2318 5000 BR BKN012
Issued Valid From Valid To
Jan-22 @ 18:22 UTC
(44 minutes ago)
Jan-22 @ 18:00 UTC
(an hour ago)
Jan-23 @ 18:00 UTC
(in 23 hours)
Jan-22 @ 18:00 to Jan-23 @ 18:00
TAF AMD EKKA 221822Z 2218/2318 14010KT 9000 FEW012 BKN180
Wind Visibility Clouds
140° at 10 knots 8,996 meters
  • Few at 1,200' AGL
  • Broken at 18,000' AGL
Temporary Jan-22 @ 18:00 to Jan-23 @ 18:00
TEMPO 2218/2318 5000 BR BKN012
Visibility Clouds Conditions
5,005 meters
  • Broken at 1,200' AGL
  • Mist
TAF AMD EKKA 221822Z 2218/2318 14010KT 9000 FEW012 BKN180 TEMPO 2218/2318 5000 BR BKN012
Issued Jan-22 @ 18:22 UTC
(44 minutes ago)
Valid From Jan-22 @ 18:00 UTC
(an hour ago)
Valid To Jan-23 @ 18:00 UTC
(in 23 hours)
Jan-22 @ 18:00 - Jan-23 @ 18:00
Wind Visibility
140° at 10 knots 8,996 meters
Clouds
  • Few at 1,200' AGL
  • Broken at 18,000' AGL
Temporary Jan-22 @ 18:00 - Jan-23 @ 18:00
Clouds
  • Broken at 1,200' AGL
Conditions
  • Mist